Waldo, Ohio
Current Conditions -  °F | °C
As of 8:53 PM on Sunday 21 Dec 2014 (Local Time) from KMNN Reporting Station
Haze Haze  
Wind Chill: -7°   Ceiling: Unl
Heat Index: -3°   Visibility: 6mi
Dew Point: -7°   Wind: 6mph
Humidity: 78%   Direction: 130°SE
Pressure: 30.19"   Gusts: NA
Location:  40.46°N, 83.08°W
Report Text: KMNN 220153Z AUTO 13005KT 6SM HZ CLR M03/M07 A3019 RMK AO2 SLP238 T10331067 TSNO
Loading
Personal Weather Stations






























Interactive Weather Map New forecast layout! Learn more

10-Day Weather Forecast

Advertisements
Track Severe Weather on mobile